sensor_id;sensor_type;location;lat;lon;timestamp;pressure;altitude;pressure_sealevel;temperature;humidity
47913;BME280;33676;51.006;17.180;2022-10-26T00:01:22;100518.40;;;8.76;100.00
47913;BME280;33676;51.006;17.180;2022-10-26T00:03:53;100516.48;;;8.74;100.00
47913;BME280;33676;51.006;17.180;2022-10-26T00:06:25;100515.25;;;8.71;100.00
47913;BME280;33676;51.006;17.180;2022-10-26T00:08:55;100519.31;;;8.71;100.00
47913;BME280;33676;51.006;17.180;2022-10-26T00:11:24;100515.70;;;8.70;100.00
47913;BME280;33676;51.006;17.180;2022-10-26T00:13:52;100517.26;;;8.70;100.00
47913;BME280;33676;51.006;17.180;2022-10-26T00:16:26;100517.31;;;8.69;100.00
47913;BME280;33676;51.006;17.180;2022-10-26T00:18:54;100526.79;;;8.68;100.00
47913;BME280;33676;51.006;17.180;2022-10-26T00:21:23;100530.06;;;8.66;100.00
47913;BME280;33676;51.006;17.180;2022-10-26T00:23:51;100541.31;;;8.65;100.00
47913;BME280;33676;51.006;17.180;2022-10-26T00:26:19;100546.08;;;8.63;100.00
47913;BME280;33676;51.006;17.180;2022-10-26T00:28:48;100545.65;;;8.62;100.00
47913;BME280;33676;51.006;17.180;2022-10-26T00:31:16;100541.63;;;8.59;100.00
47913;BME280;33676;51.006;17.180;2022-10-26T00:33:44;100548.63;;;8.56;100.00
47913;BME280;33676;51.006;17.180;2022-10-26T00:36:13;100547.41;;;8.53;100.00
47913;BME280;33676;51.006;17.180;2022-10-26T00:38:49;100544.73;;;8.49;100.00
47913;BME280;33676;51.006;17.180;2022-10-26T00:41:21;100545.31;;;8.46;100.00
47913;BME280;33676;51.006;17.180;2022-10-26T00:43:51;100546.71;;;8.43;100.00
47913;BME280;33676;51.006;17.180;2022-10-26T00:46:31;100550.40;;;8.40;100.00
47913;BME280;33676;51.006;17.180;2022-10-26T00:49:05;100547.31;;;8.36;100.00
47913;BME280;33676;51.006;17.180;2022-10-26T00:51:51;100544.69;;;8.34;100.00
47913;BME280;33676;51.006;17.180;2022-10-26T00:54:20;100543.69;;;8.30;100.00
47913;BME280;33676;51.006;17.180;2022-10-26T00:56:51;100546.81;;;8.28;100.00
47913;BME280;33676;51.006;17.180;2022-10-26T00:59:22;100544.73;;;8.25;100.00
47913;BME280;33676;51.006;17.180;2022-10-26T01:01:51;100544.05;;;8.22;100.00
47913;BME280;33676;51.006;17.180;2022-10-26T01:04:20;100546.79;;;8.20;100.00
47913;BME280;33676;51.006;17.180;2022-10-26T01:06:50;100549.50;;;8.18;100.00
47913;BME280;33676;51.006;17.180;2022-10-26T01:09:20;100547.04;;;8.16;100.00
47913;BME280;33676;51.006;17.180;2022-10-26T01:11:49;100539.98;;;8.15;100.00
47913;BME280;33676;51.006;17.180;2022-10-26T01:14:18;100543.05;;;8.13;100.00
47913;BME280;33676;51.006;17.180;2022-10-26T01:20:01;100542.30;;;8.11;100.00
47913;BME280;33676;51.006;17.180;2022-10-26T01:23:01;100543.27;;;8.10;100.00
47913;BME280;33676;51.006;17.180;2022-10-26T01:25:52;100546.55;;;8.08;100.00
47913;BME280;33676;51.006;17.180;2022-10-26T01:31:40;100542.98;;;8.03;100.00
47913;BME280;33676;51.006;17.180;2022-10-26T01:34:21;100539.62;;;8.02;100.00
47913;BME280;33676;51.006;17.180;2022-10-26T01:36:57;100536.23;;;8.00;100.00
47913;BME280;33676;51.006;17.180;2022-10-26T01:39:37;100532.60;;;7.96;100.00
47913;BME280;33676;51.006;17.180;2022-10-26T01:42:08;100533.76;;;7.95;100.00
47913;BME280;33676;51.006;17.180;2022-10-26T01:44:43;100535.99;;;7.92;100.00
47913;BME280;33676;51.006;17.180;2022-10-26T01:47:15;100535.31;;;7.89;100.00
47913;BME280;33676;51.006;17.180;2022-10-26T01:49:49;100530.64;;;7.86;100.00
47913;BME280;33676;51.006;17.180;2022-10-26T01:52:19;100530.62;;;7.84;100.00
47913;BME280;33676;51.006;17.180;2022-10-26T01:54:48;100528.02;;;7.81;100.00
47913;BME280;33676;51.006;17.180;2022-10-26T01:57:19;100529.73;;;7.79;100.00
47913;BME280;33676;51.006;17.180;2022-10-26T02:00:07;100530.02;;;7.77;100.00
47913;BME280;33676;51.006;17.180;2022-10-26T02:03:13;100525.85;;;7.74;100.00
47913;BME280;33676;51.006;17.180;2022-10-26T02:09:44;100521.40;;;7.73;100.00
47913;BME280;33676;51.006;17.180;2022-10-26T02:12:08;100517.84;;;7.72;100.00
47913;BME280;33676;51.006;17.180;2022-10-26T02:14:48;100525.23;;;7.70;100.00
47913;BME280;33676;51.006;17.180;2022-10-26T02:20:18;100515.17;;;7.67;100.00
47913;BME280;33676;51.006;17.180;2022-10-26T02:22:50;100518.02;;;7.66;100.00
47913;BME280;33676;51.006;17.180;2022-10-26T02:25:27;100516.21;;;7.64;100.00
47913;BME280;33676;51.006;17.180;2022-10-26T02:28:03;100516.57;;;7.64;100.00
47913;BME280;33676;51.006;17.180;2022-10-26T02:30:34;100517.74;;;7.62;100.00
47913;BME280;33676;51.006;17.180;2022-10-26T02:33:04;100521.13;;;7.61;100.00
47913;BME280;33676;51.006;17.180;2022-10-26T02:35:36;100522.90;;;7.60;100.00
47913;BME280;33676;51.006;17.180;2022-10-26T02:38:11;100522.69;;;7.61;100.00
47913;BME280;33676;51.006;17.180;2022-10-26T02:40:40;100525.71;;;7.62;100.00
47913;BME280;33676;51.006;17.180;2022-10-26T02:43:13;100521.67;;;7.63;100.00
47913;BME280;33676;51.006;17.180;2022-10-26T02:45:46;100527.20;;;7.64;100.00
47913;BME280;33676;51.006;17.180;2022-10-26T02:48:16;100528.11;;;7.63;100.00
47913;BME280;33676;51.006;17.180;2022-10-26T02:51:38;100527.45;;;7.62;100.00
47913;BME280;33676;51.006;17.180;2022-10-26T02:54:31;100529.75;;;7.59;100.00
47913;BME280;33676;51.006;17.180;2022-10-26T02:57:14;100529.77;;;7.56;100.00
47913;BME280;33676;51.006;17.180;2022-10-26T02:59:45;100531.04;;;7.55;100.00
47913;BME280;33676;51.006;17.180;2022-10-26T03:02:16;100543.16;;;7.56;100.00
47913;BME280;33676;51.006;17.180;2022-10-26T03:04:48;100542.88;;;7.58;100.00
47913;BME280;33676;51.006;17.180;2022-10-26T03:07:22;100543.85;;;7.59;100.00
47913;BME280;33676;51.006;17.180;2022-10-26T03:09:51;100540.68;;;7.60;100.00
47913;BME280;33676;51.006;17.180;2022-10-26T03:12:19;100539.77;;;7.60;100.00
47913;BME280;33676;51.006;17.180;2022-10-26T03:14:48;100539.05;;;7.60;100.00
47913;BME280;33676;51.006;17.180;2022-10-26T03:17:16;100541.95;;;7.61;100.00
47913;BME280;33676;51.006;17.180;2022-10-26T03:19:44;100544.80;;;7.63;100.00
47913;BME280;33676;51.006;17.180;2022-10-26T03:22:12;100547.92;;;7.63;100.00
47913;BME280;33676;51.006;17.180;2022-10-26T03:24:41;100550.69;;;7.64;100.00
47913;BME280;33676;51.006;17.180;2022-10-26T03:27:09;100553.70;;;7.63;100.00
47913;BME280;33676;51.006;17.180;2022-10-26T03:29:37;100555.65;;;7.62;100.00
47913;BME280;33676;51.006;17.180;2022-10-26T03:32:06;100558.68;;;7.64;100.00
47913;BME280;33676;51.006;17.180;2022-10-26T03:34:34;100557.41;;;7.65;100.00
47913;BME280;33676;51.006;17.180;2022-10-26T03:37:02;100553.33;;;7.63;100.00
47913;BME280;33676;51.006;17.180;2022-10-26T03:39:30;100556.73;;;7.61;100.00
47913;BME280;33676;51.006;17.180;2022-10-26T03:41:59;100556.83;;;7.60;100.00
47913;BME280;33676;51.006;17.180;2022-10-26T03:44:27;100556.66;;;7.57;100.00
47913;BME280;33676;51.006;17.180;2022-10-26T03:46:55;100555.31;;;7.54;100.00
47913;BME280;33676;51.006;17.180;2022-10-26T03:49:24;100556.67;;;7.51;100.00
47913;BME280;33676;51.006;17.180;2022-10-26T03:51:52;100557.92;;;7.48;100.00
47913;BME280;33676;51.006;17.180;2022-10-26T03:54:20;100559.34;;;7.44;100.00
47913;BME280;33676;51.006;17.180;2022-10-26T03:56:48;100558.84;;;7.39;100.00
47913;BME280;33676;51.006;17.180;2022-10-26T03:59:22;100558.05;;;7.34;100.00
47913;BME280;33676;51.006;17.180;2022-10-26T04:01:50;100559.66;;;7.30;100.00
47913;BME280;33676;51.006;17.180;2022-10-26T04:04:24;100557.64;;;7.27;100.00
47913;BME280;33676;51.006;17.180;2022-10-26T04:06:52;100551.69;;;7.25;100.00
47913;BME280;33676;51.006;17.180;2022-10-26T04:09:20;100553.42;;;7.22;100.00
47913;BME280;33676;51.006;17.180;2022-10-26T04:11:48;100554.73;;;7.17;100.00
47913;BME280;33676;51.006;17.180;2022-10-26T04:14:17;100556.20;;;7.13;100.00
47913;BME280;33676;51.006;17.180;2022-10-26T04:16:45;100554.85;;;7.09;100.00
47913;BME280;33676;51.006;17.180;2022-10-26T04:19:13;100556.23;;;7.07;100.00
47913;BME280;33676;51.006;17.180;2022-10-26T04:21:41;100559.66;;;7.05;100.00
47913;BME280;33676;51.006;17.180;2022-10-26T04:24:11;100556.70;;;7.02;100.00
47913;BME280;33676;51.006;17.180;2022-10-26T04:26:39;100555.53;;;6.98;100.00
47913;BME280;33676;51.006;17.180;2022-10-26T04:29:07;100558.19;;;6.94;100.00
47913;BME280;33676;51.006;17.180;2022-10-26T04:31:36;100559.23;;;6.91;100.00
47913;BME280;33676;51.006;17.180;2022-10-26T04:34:04;100557.13;;;6.89;100.00
47913;BME280;33676;51.006;17.180;2022-10-26T04:36:32;100561.60;;;6.86;100.00
47913;BME280;33676;51.006;17.180;2022-10-26T04:39:02;100558.65;;;6.83;100.00
47913;BME280;33676;51.006;17.180;2022-10-26T04:41:30;100560.38;;;6.80;100.00
47913;BME280;33676;51.006;17.180;2022-10-26T04:43:58;100562.29;;;6.78;100.00
47913;BME280;33676;51.006;17.180;2022-10-26T04:46:27;100562.25;;;6.76;100.00
47913;BME280;33676;51.006;17.180;2022-10-26T04:48:55;100561.50;;;6.74;100.00
47913;BME280;33676;51.006;17.180;2022-10-26T04:51:23;100563.33;;;6.72;100.00
47913;BME280;33676;51.006;17.180;2022-10-26T04:53:53;100562.60;;;6.70;100.00
47913;BME280;33676;51.006;17.180;2022-10-26T04:56:22;100562.55;;;6.67;100.00
47913;BME280;33676;51.006;17.180;2022-10-26T04:58:53;100566.29;;;6.66;100.00
47913;BME280;33676;51.006;17.180;2022-10-26T05:01:21;100562.58;;;6.63;100.00
47913;BME280;33676;51.006;17.180;2022-10-26T05:03:51;100567.52;;;6.62;100.00
47913;BME280;33676;51.006;17.180;2022-10-26T05:06:20;100566.84;;;6.62;100.00
47913;BME280;33676;51.006;17.180;2022-10-26T05:08:48;100568.45;;;6.61;100.00
47913;BME280;33676;51.006;17.180;2022-10-26T05:11:17;100565.71;;;6.60;100.00
47913;BME280;33676;51.006;17.180;2022-10-26T05:13:46;100569.75;;;6.60;100.00
47913;BME280;33676;51.006;17.180;2022-10-26T05:16:16;100572.41;;;6.59;100.00
47913;BME280;33676;51.006;17.180;2022-10-26T05:18:47;100570.54;;;6.58;100.00
47913;BME280;33676;51.006;17.180;2022-10-26T05:21:16;100569.54;;;6.57;100.00
47913;BME280;33676;51.006;17.180;2022-10-26T05:23:51;100572.21;;;6.56;100.00
47913;BME280;33676;51.006;17.180;2022-10-26T05:26:22;100575.91;;;6.58;100.00
47913;BME280;33676;51.006;17.180;2022-10-26T05:28:51;100582.59;;;6.60;100.00
47913;BME280;33676;51.006;17.180;2022-10-26T05:31:20;100583.05;;;6.61;100.00
47913;BME280;33676;51.006;17.180;2022-10-26T05:33:50;100588.18;;;6.62;100.00
47913;BME280;33676;51.006;17.180;2022-10-26T05:36:18;100591.27;;;6.63;100.00
47913;BME280;33676;51.006;17.180;2022-10-26T05:38:47;100594.53;;;6.64;100.00
47913;BME280;33676;51.006;17.180;2022-10-26T05:41:15;100595.37;;;6.64;100.00
47913;BME280;33676;51.006;17.180;2022-10-26T05:43:46;100594.63;;;6.65;100.00
47913;BME280;33676;51.006;17.180;2022-10-26T05:46:15;100591.83;;;6.66;100.00
47913;BME280;33676;51.006;17.180;2022-10-26T05:48:44;100593.54;;;6.66;100.00
47913;BME280;33676;51.006;17.180;2022-10-26T05:51:12;100590.53;;;6.67;100.00
47913;BME280;33676;51.006;17.180;2022-10-26T05:53:41;100594.55;;;6.70;100.00
47913;BME280;33676;51.006;17.180;2022-10-26T05:56:19;100595.59;;;6.70;100.00
47913;BME280;33676;51.006;17.180;2022-10-26T05:58:48;100594.63;;;6.72;100.00
47913;BME280;33676;51.006;17.180;2022-10-26T06:04:42;100597.95;;;6.74;100.00
47913;BME280;33676;51.006;17.180;2022-10-26T06:07:17;100600.38;;;6.77;100.00
47913;BME280;33676;51.006;17.180;2022-10-26T06:09:49;100601.72;;;6.81;100.00
47913;BME280;33676;51.006;17.180;2022-10-26T06:12:18;100602.00;;;6.85;100.00
47913;BME280;33676;51.006;17.180;2022-10-26T06:14:47;100606.36;;;6.90;100.00
47913;BME280;33676;51.006;17.180;2022-10-26T06:17:46;100609.81;;;6.97;100.00
47913;BME280;33676;51.006;17.180;2022-10-26T06:21:01;100611.16;;;7.04;100.00
47913;BME280;33676;51.006;17.180;2022-10-26T06:26:30;100609.23;;;7.19;100.00
47913;BME280;33676;51.006;17.180;2022-10-26T06:29:21;100608.74;;;7.27;100.00
47913;BME280;33676;51.006;17.180;2022-10-26T06:31:52;100612.94;;;7.35;100.00
47913;BME280;33676;51.006;17.180;2022-10-26T06:34:26;100614.43;;;7.43;100.00
47913;BME280;33676;51.006;17.180;2022-10-26T06:36:58;100618.80;;;7.51;100.00
47913;BME280;33676;51.006;17.180;2022-10-26T06:39:30;100619.23;;;7.58;100.00
47913;BME280;33676;51.006;17.180;2022-10-26T06:42:02;100628.61;;;7.67;100.00
47913;BME280;33676;51.006;17.180;2022-10-26T06:44:30;100628.84;;;7.75;100.00
47913;BME280;33676;51.006;17.180;2022-10-26T06:47:21;100634.06;;;7.82;100.00
47913;BME280;33676;51.006;17.180;2022-10-26T06:55:53;100628.95;;;8.13;100.00
47913;BME280;33676;51.006;17.180;2022-10-26T06:58:28;100626.18;;;8.20;100.00
47913;BME280;33676;51.006;17.180;2022-10-26T07:00:57;100625.30;;;8.29;100.00
47913;BME280;33676;51.006;17.180;2022-10-26T07:03:26;100627.52;;;8.38;100.00
47913;BME280;33676;51.006;17.180;2022-10-26T07:05:54;100626.44;;;8.47;100.00
47913;BME280;33676;51.006;17.180;2022-10-26T07:08:22;100632.99;;;8.56;100.00
47913;BME280;33676;51.006;17.180;2022-10-26T07:10:51;100633.66;;;8.65;100.00
47913;BME280;33676;51.006;17.180;2022-10-26T07:13:19;100627.51;;;8.74;100.00
47913;BME280;33676;51.006;17.180;2022-10-26T07:15:47;100624.80;;;8.83;100.00
47913;BME280;33676;51.006;17.180;2022-10-26T07:18:15;100624.90;;;8.92;100.00
47913;BME280;33676;51.006;17.180;2022-10-26T07:20:44;100625.35;;;9.01;100.00
47913;BME280;33676;51.006;17.180;2022-10-26T07:23:12;100624.72;;;9.10;100.00
47913;BME280;33676;51.006;17.180;2022-10-26T07:25:40;100628.06;;;9.20;100.00
47913;BME280;33676;51.006;17.180;2022-10-26T07:28:10;100630.36;;;9.30;100.00
47913;BME280;33676;51.006;17.180;2022-10-26T07:30:39;100635.11;;;9.40;100.00
47913;BME280;33676;51.006;17.180;2022-10-26T07:33:13;100635.20;;;9.49;100.00
47913;BME280;33676;51.006;17.180;2022-10-26T07:35:41;100632.77;;;9.59;100.00
47913;BME280;33676;51.006;17.180;2022-10-26T07:38:11;100636.17;;;9.68;100.00
47913;BME280;33676;51.006;17.180;2022-10-26T07:40:40;100635.08;;;9.79;100.00
47913;BME280;33676;51.006;17.180;2022-10-26T07:43:08;100637.64;;;9.89;100.00
47913;BME280;33676;51.006;17.180;2022-10-26T07:45:37;100635.77;;;10.01;100.00
47913;BME280;33676;51.006;17.180;2022-10-26T07:48:07;100642.40;;;10.14;100.00
47913;BME280;33676;51.006;17.180;2022-10-26T07:50:35;100645.30;;;10.27;100.00
47913;BME280;33676;51.006;17.180;2022-10-26T07:53:04;100646.39;;;10.41;100.00
47913;BME280;33676;51.006;17.180;2022-10-26T07:55:32;100639.70;;;10.56;100.00
47913;BME280;33676;51.006;17.180;2022-10-26T07:58:00;100644.90;;;10.72;100.00
47913;BME280;33676;51.006;17.180;2022-10-26T08:00:29;100644.93;;;10.88;100.00
47913;BME280;33676;51.006;17.180;2022-10-26T08:02:58;100641.96;;;11.04;100.00
47913;BME280;33676;51.006;17.180;2022-10-26T08:05:26;100643.69;;;11.21;100.00
47913;BME280;33676;51.006;17.180;2022-10-26T08:07:54;100648.34;;;11.38;100.00
47913;BME280;33676;51.006;17.180;2022-10-26T08:10:23;100643.05;;;11.57;100.00
47913;BME280;33676;51.006;17.180;2022-10-26T08:12:51;100644.98;;;11.75;100.00
47913;BME280;33676;51.006;17.180;2022-10-26T08:15:20;100642.64;;;11.94;100.00
47913;BME280;33676;51.006;17.180;2022-10-26T08:17:48;100636.91;;;12.13;100.00
47913;BME280;33676;51.006;17.180;2022-10-26T08:20:17;100636.80;;;12.33;100.00
47913;BME280;33676;51.006;17.180;2022-10-26T08:22:45;100634.00;;;12.52;100.00
47913;BME280;33676;51.006;17.180;2022-10-26T08:25:13;100635.77;;;12.73;100.00
47913;BME280;33676;51.006;17.180;2022-10-26T08:27:48;100633.59;;;12.98;100.00
47913;BME280;33676;51.006;17.180;2022-10-26T08:30:17;100633.15;;;13.20;100.00
47913;BME280;33676;51.006;17.180;2022-10-26T08:32:45;100635.35;;;13.40;100.00
47913;BME280;33676;51.006;17.180;2022-10-26T08:35:14;100635.67;;;13.61;100.00
47913;BME280;33676;51.006;17.180;2022-10-26T08:37:43;100639.31;;;13.82;100.00
47913;BME280;33676;51.006;17.180;2022-10-26T08:40:15;100637.55;;;14.02;100.00
47913;BME280;33676;51.006;17.180;2022-10-26T08:42:48;100639.60;;;14.29;100.00
47913;BME280;33676;51.006;17.180;2022-10-26T08:45:30;100639.76;;;14.55;100.00
47913;BME280;33676;51.006;17.180;2022-10-26T08:48:11;100645.31;;;14.83;100.00
47913;BME280;33676;51.006;17.180;2022-10-26T08:50:54;100637.03;;;15.07;100.00
47913;BME280;33676;51.006;17.180;2022-10-26T08:53:44;100638.16;;;15.34;100.00
47913;BME280;33676;51.006;17.180;2022-10-26T08:56:21;100641.35;;;15.67;100.00
47913;BME280;33676;51.006;17.180;2022-10-26T08:59:20;100640.78;;;15.97;100.00
47913;BME280;33676;51.006;17.180;2022-10-26T09:01:53;100642.79;;;16.31;100.00
47913;BME280;33676;51.006;17.180;2022-10-26T09:04:27;100641.77;;;16.60;100.00
47913;BME280;33676;51.006;17.180;2022-10-26T09:07:14;100638.69;;;16.86;100.00
47913;BME280;33676;51.006;17.180;2022-10-26T09:10:18;100640.22;;;17.11;100.00
47913;BME280;33676;51.006;17.180;2022-10-26T09:21:27;100641.76;;;18.25;100.00
47913;BME280;33676;51.006;17.180;2022-10-26T09:24:32;100647.39;;;18.57;100.00
47913;BME280;33676;51.006;17.180;2022-10-26T09:29:40;100645.33;;;19.10;100.00
47913;BME280;33676;51.006;17.180;2022-10-26T09:32:23;100644.98;;;19.31;100.00
47913;BME280;33676;51.006;17.180;2022-10-26T09:35:11;100649.73;;;19.57;100.00
47913;BME280;33676;51.006;17.180;2022-10-26T09:37:53;100651.11;;;19.80;100.00
47913;BME280;33676;51.006;17.180;2022-10-26T09:40:31;100650.13;;;20.01;100.00
47913;BME280;33676;51.006;17.180;2022-10-26T09:43:17;100651.69;;;20.24;100.00
47913;BME280;33676;51.006;17.180;2022-10-26T09:45:50;100658.60;;;20.47;100.00
47913;BME280;33676;51.006;17.180;2022-10-26T09:48:31;100661.63;;;20.69;99.48
47913;BME280;33676;51.006;17.180;2022-10-26T09:51:03;100660.25;;;20.94;99.32
47913;BME280;33676;51.006;17.180;2022-10-26T09:53:32;100664.31;;;21.13;98.00
47913;BME280;33676;51.006;17.180;2022-10-26T09:56:03;100661.43;;;21.33;97.41
47913;BME280;33676;51.006;17.180;2022-10-26T09:58:46;100662.74;;;21.51;96.52
47913;BME280;33676;51.006;17.180;2022-10-26T10:01:41;100668.26;;;21.71;96.14
47913;BME280;33676;51.006;17.180;2022-10-26T10:06:45;100665.39;;;22.06;93.33
47913;BME280;33676;51.006;17.180;2022-10-26T10:09:23;100663.06;;;22.15;92.11
47913;BME280;33676;51.006;17.180;2022-10-26T10:12:00;100661.39;;;22.33;92.74
47913;BME280;33676;51.006;17.180;2022-10-26T10:14:38;100666.20;;;22.68;92.91
47913;BME280;33676;51.006;17.180;2022-10-26T10:17:19;100663.76;;;22.82;91.22
47913;BME280;33676;51.006;17.180;2022-10-26T10:19:49;100664.59;;;22.99;91.01
47913;BME280;33676;51.006;17.180;2022-10-26T10:22:20;100668.90;;;23.20;90.28
47913;BME280;33676;51.006;17.180;2022-10-26T10:25:01;100668.23;;;23.33;89.38
47913;BME280;33676;51.006;17.180;2022-10-26T10:27:30;100666.65;;;23.43;88.59
47913;BME280;33676;51.006;17.180;2022-10-26T10:30:21;100662.69;;;23.55;88.49
47913;BME280;33676;51.006;17.180;2022-10-26T10:33:22;100661.55;;;23.77;88.16
47913;BME280;33676;51.006;17.180;2022-10-26T10:35:50;100662.70;;;23.88;86.81
47913;BME280;33676;51.006;17.180;2022-10-26T10:38:20;100665.77;;;23.98;86.59
47913;BME280;33676;51.006;17.180;2022-10-26T10:40:59;100662.61;;;24.06;85.79
47913;BME280;33676;51.006;17.180;2022-10-26T10:43:31;100663.30;;;24.18;85.78
47913;BME280;33676;51.006;17.180;2022-10-26T10:46:00;100665.44;;;24.28;84.95
47913;BME280;33676;51.006;17.180;2022-10-26T10:48:28;100664.80;;;24.32;84.29
47913;BME280;33676;51.006;17.180;2022-10-26T10:51:07;100667.27;;;24.47;84.78
47913;BME280;33676;51.006;17.180;2022-10-26T10:53:53;100660.51;;;24.70;84.80
47913;BME280;33676;51.006;17.180;2022-10-26T10:56:42;100661.55;;;24.91;83.93
47913;BME280;33676;51.006;17.180;2022-10-26T10:59:46;100664.79;;;24.97;82.81
47913;BME280;33676;51.006;17.180;2022-10-26T11:08:12;100657.07;;;25.38;82.46
47913;BME280;33676;51.006;17.180;2022-10-26T11:10:57;100657.90;;;25.45;80.99
47913;BME280;33676;51.006;17.180;2022-10-26T11:14:36;100655.66;;;25.45;80.58
47913;BME280;33676;51.006;17.180;2022-10-26T11:16:59;100658.73;;;25.53;80.33
47913;BME280;33676;51.006;17.180;2022-10-26T11:19:41;100658.75;;;25.64;79.77
47913;BME280;33676;51.006;17.180;2022-10-26T11:22:18;100656.02;;;25.76;79.65
47913;BME280;33676;51.006;17.180;2022-10-26T11:24:56;100659.74;;;25.92;79.73
47913;BME280;33676;51.006;17.180;2022-10-26T11:27:47;100658.39;;;26.13;79.46
47913;BME280;33676;51.006;17.180;2022-10-26T11:30:20;100658.52;;;26.33;78.79
47913;BME280;33676;51.006;17.180;2022-10-26T11:33:19;100658.41;;;26.42;77.77
47913;BME280;33676;51.006;17.180;2022-10-26T11:36:02;100658.54;;;26.49;76.92
47913;BME280;33676;51.006;17.180;2022-10-26T11:38:48;100659.67;;;26.57;76.14
47913;BME280;33676;51.006;17.180;2022-10-26T11:41:39;100661.09;;;26.54;74.87
47913;BME280;33676;51.006;17.180;2022-10-26T11:46:52;100657.77;;;26.64;74.24
47913;BME280;33676;51.006;17.180;2022-10-26T11:49:51;100653.73;;;26.77;74.36
47913;BME280;33676;51.006;17.180;2022-10-26T11:52:27;100656.63;;;27.00;74.28
47913;BME280;33676;51.006;17.180;2022-10-26T11:54:58;100658.88;;;27.21;73.99
47913;BME280;33676;51.006;17.180;2022-10-26T11:57:33;100660.04;;;27.31;73.21
47913;BME280;33676;51.006;17.180;2022-10-26T12:00:13;100655.84;;;27.33;72.70
47913;BME280;33676;51.006;17.180;2022-10-26T12:02:52;100656.96;;;27.43;72.38
47913;BME280;33676;51.006;17.180;2022-10-26T12:05:56;100653.05;;;27.53;72.43
47913;BME280;33676;51.006;17.180;2022-10-26T12:08:26;100655.33;;;27.59;71.87
47913;BME280;33676;51.006;17.180;2022-10-26T12:19:30;100648.42;;;27.67;69.80
47913;BME280;33676;51.006;17.180;2022-10-26T12:22:00;100645.94;;;27.62;69.32
47913;BME280;33676;51.006;17.180;2022-10-26T12:24:30;100643.48;;;27.67;69.21
47913;BME280;33676;51.006;17.180;2022-10-26T12:27:04;100640.86;;;27.68;68.56
47913;BME280;33676;51.006;17.180;2022-10-26T12:29:45;100643.27;;;27.73;68.72
47913;BME280;33676;51.006;17.180;2022-10-26T12:35:00;100641.66;;;27.87;68.58
47913;BME280;33676;51.006;17.180;2022-10-26T12:37:34;100644.19;;;27.96;68.20
47913;BME280;33676;51.006;17.180;2022-10-26T12:48:43;100640.11;;;27.72;66.80
47913;BME280;33676;51.006;17.180;2022-10-26T12:54:27;100634.60;;;27.92;66.51
47913;BME280;33676;51.006;17.180;2022-10-26T12:57:29;100638.83;;;28.00;66.38
47913;BME280;33676;51.006;17.180;2022-10-26T13:00:04;100643.47;;;28.05;66.04
47913;BME280;33676;51.006;17.180;2022-10-26T13:04:09;100644.14;;;28.10;65.83
47913;BME280;33676;51.006;17.180;2022-10-26T13:08:57;100637.26;;;28.21;65.46
47913;BME280;33676;51.006;17.180;2022-10-26T13:11:52;100637.98;;;28.18;65.18
47913;BME280;33676;51.006;17.180;2022-10-26T13:14:26;100637.88;;;28.21;65.41
47913;BME280;33676;51.006;17.180;2022-10-26T13:16:59;100634.49;;;28.24;65.14
47913;BME280;33676;51.006;17.180;2022-10-26T13:19:43;100629.76;;;28.24;65.04
47913;BME280;33676;51.006;17.180;2022-10-26T13:22:14;100630.15;;;28.42;65.45
47913;BME280;33676;51.006;17.180;2022-10-26T13:24:52;100630.68;;;28.58;65.42
47913;BME280;33676;51.006;17.180;2022-10-26T13:27:26;100630.48;;;28.73;65.09
47913;BME280;33676;51.006;17.180;2022-10-26T13:30:20;100633.77;;;28.90;64.90
47913;BME280;33676;51.006;17.180;2022-10-26T13:32:54;100635.73;;;29.03;64.54
47913;BME280;33676;51.006;17.180;2022-10-26T13:35:25;100637.19;;;29.10;64.12
47913;BME280;33676;51.006;17.180;2022-10-26T13:37:54;100636.88;;;29.20;64.10
47913;BME280;33676;51.006;17.180;2022-10-26T13:40:26;100635.61;;;29.26;63.65
47913;BME280;33676;51.006;17.180;2022-10-26T13:42:57;100634.77;;;29.41;63.96
47913;BME280;33676;51.006;17.180;2022-10-26T13:45:41;100636.14;;;29.53;63.60
47913;BME280;33676;51.006;17.180;2022-10-26T13:48:21;100635.21;;;29.65;63.52
47913;BME280;33676;51.006;17.180;2022-10-26T13:50:58;100639.02;;;29.88;63.46
47913;BME280;33676;51.006;17.180;2022-10-26T13:53:44;100639.46;;;30.11;63.44
47913;BME280;33676;51.006;17.180;2022-10-26T13:56:36;100637.50;;;30.29;63.00
47913;BME280;33676;51.006;17.180;2022-10-26T13:59:12;100639.15;;;30.42;62.25
47913;BME280;33676;51.006;17.180;2022-10-26T14:01:40;100636.21;;;30.49;62.19
47913;BME280;33676;51.006;17.180;2022-10-26T14:04:26;100635.21;;;30.64;62.22
47913;BME280;33676;51.006;17.180;2022-10-26T14:06:54;100634.16;;;30.72;61.49
47913;BME280;33676;51.006;17.180;2022-10-26T14:09:23;100633.27;;;30.74;61.49
47913;BME280;33676;51.006;17.180;2022-10-26T14:11:55;100634.30;;;30.91;61.57
47913;BME280;33676;51.006;17.180;2022-10-26T14:14:31;100630.95;;;31.08;61.62
47913;BME280;33676;51.006;17.180;2022-10-26T14:17:01;100627.13;;;31.26;61.55
47913;BME280;33676;51.006;17.180;2022-10-26T14:19:37;100625.28;;;31.43;61.25
47913;BME280;33676;51.006;17.180;2022-10-26T14:22:06;100626.06;;;31.48;60.70
47913;BME280;33676;51.006;17.180;2022-10-26T14:24:36;100627.84;;;31.50;60.40
47913;BME280;33676;51.006;17.180;2022-10-26T14:27:21;100626.77;;;31.59;60.47
47913;BME280;33676;51.006;17.180;2022-10-26T14:29:52;100626.79;;;31.67;60.13